Time,TemperatureF,DewpointF,PressureIn,WindDirection,WindDirectionDegrees,WindSpeedMPH,WindSpeedGustMPH,Humidity,HourlyPrecipIn,Conditions,Clouds,dailyrainin,SolarRadiationWatts/m^2,SoftwareType,DateUTC
2013-04-24 00:02:00,57.0,15.0,-100.00,ESE,118,20.0,21.0,19,0.00,,,0.00,0.000000,,2013-04-24 06:02:00,
2013-04-24 00:12:00,57.0,15.0,-100.00,ESE,118,20.0,21.0,19,0.00,,,0.00,0.000000,,2013-04-24 06:12:00,
2013-04-24 00:21:00,57.0,15.0,-100.00,ESE,118,20.0,21.0,19,0.00,,,0.00,0.000000,,2013-04-24 06:21:00,
2013-04-24 00:52:00,52.0,19.0,-100.00,ESE,108,24.0,39.0,27,0.00,,,0.00,0.000000,,2013-04-24 06:52:00,
2013-04-24 01:02:00,52.0,19.0,-100.00,ESE,108,24.0,39.0,27,0.00,,,0.00,0.000000,,2013-04-24 07:02:00,
2013-04-24 01:11:00,52.0,19.0,-100.00,ESE,108,24.0,39.0,27,0.00,,,0.00,0.000000,,2013-04-24 07:11:00,
2013-04-24 01:22:00,52.0,19.0,-100.00,ESE,108,24.0,39.0,27,0.00,,,0.00,0.000000,,2013-04-24 07:22:00,
2013-04-24 01:52:00,49.0,20.0,-100.00,ESE,115,21.0,37.0,32,0.00,,,0.00,0.000000,,2013-04-24 07:52:00,
2013-04-24 02:02:00,49.0,20.0,-100.00,ESE,115,21.0,37.0,32,0.00,,,0.00,0.000000,,2013-04-24 08:02:00,
2013-04-24 02:12:00,49.0,20.0,-100.00,ESE,115,21.0,37.0,32,0.00,,,0.00,0.000000,,2013-04-24 08:12:00,
2013-04-24 02:21:00,49.0,20.0,-100.00,ESE,115,21.0,37.0,32,0.00,,,0.00,0.000000,,2013-04-24 08:21:00,
2013-04-24 02:52:00,49.0,20.0,-100.00,ENE,74,5.0,31.0,31,0.00,,,0.00,0.000000,,2013-04-24 08:52:00,
2013-04-24 03:02:00,49.0,20.0,-100.00,ENE,74,5.0,31.0,31,0.00,,,0.00,0.000000,,2013-04-24 09:02:00,
2013-04-24 03:11:00,49.0,20.0,-100.00,ENE,74,5.0,31.0,31,0.00,,,0.00,0.000000,,2013-04-24 09:11:00,
2013-04-24 03:21:00,49.0,20.0,-100.00,ENE,74,5.0,31.0,31,0.00,,,0.00,0.000000,,2013-04-24 09:21:00,
2013-04-24 03:53:00,48.0,20.0,-100.00,NNW,348,4.0,10.0,33,0.00,,,0.00,0.000000,,2013-04-24 09:53:00,
2013-04-24 04:02:00,48.0,20.0,-100.00,NNW,348,4.0,10.0,33,0.00,,,0.00,0.000000,,2013-04-24 10:02:00,
2013-04-24 04:12:00,48.0,20.0,-100.00,NNW,348,4.0,10.0,33,0.00,,,0.00,0.000000,,2013-04-24 10:12:00,
2013-04-24 04:22:00,48.0,20.0,-100.00,NNW,348,4.0,10.0,33,0.00,,,0.00,0.000000,,2013-04-24 10:22:00,
2013-04-24 04:53:00,43.0,19.0,-100.00,ENE,59,0.0,6.0,38,0.00,,,0.00,0.000000,,2013-04-24 10:53:00,
2013-04-24 05:02:00,43.0,19.0,-100.00,ENE,59,0.0,6.0,38,0.00,,,0.00,0.000000,,2013-04-24 11:02:00,
2013-04-24 05:11:00,43.0,19.0,-100.00,ENE,59,0.0,6.0,38,0.00,,,0.00,0.000000,,2013-04-24 11:11:00,
2013-04-24 05:21:00,43.0,19.0,-100.00,ENE,59,0.0,6.0,38,0.00,,,0.00,0.000000,,2013-04-24 11:21:00,
2013-04-24 05:52:00,43.0,21.0,-100.00,ESE,115,1.0,13.0,41,0.00,,,0.00,0.000000,,2013-04-24 11:52:00,
2013-04-24 06:02:00,43.0,21.0,-100.00,ESE,115,1.0,13.0,41,0.00,,,0.00,0.000000,,2013-04-24 12:02:00,
2013-04-24 06:11:00,43.0,21.0,-100.00,ESE,115,1.0,13.0,41,0.00,,,0.00,0.000000,,2013-04-24 12:11:00,
2013-04-24 06:22:00,43.0,21.0,-100.00,ESE,115,1.0,13.0,41,0.00,,,0.00,0.000000,,2013-04-24 12:22:00,
2013-04-24 06:52:00,41.0,19.0,-100.00,NNE,26,0.0,5.0,41,0.00,,,0.00,0.000000,,2013-04-24 12:52:00,
2013-04-24 07:01:00,41.0,19.0,-100.00,NNE,26,0.0,5.0,41,0.00,,,0.00,0.000000,,2013-04-24 13:01:00,
2013-04-24 07:12:00,41.0,19.0,-100.00,NNE,26,0.0,5.0,41,0.00,,,0.00,0.000000,,2013-04-24 13:12:00,
2013-04-24 07:22:00,41.0,19.0,-100.00,NNE,26,0.0,5.0,41,0.00,,,0.00,0.000000,,2013-04-24 13:22:00,
2013-04-24 08:52:00,48.0,22.0,-100.00,NNE,18,2.0,5.0,36,-99.99,,,0.00,214.000000,,2013-04-24 14:52:00,
2013-04-24 09:01:00,48.0,22.0,-100.00,NNE,18,2.0,5.0,36,-99.99,,,0.00,214.000000,,2013-04-24 15:01:00,
2013-04-24 09:11:00,48.0,22.0,-100.00,NNE,18,2.0,5.0,36,-99.99,,,0.00,214.000000,,2013-04-24 15:11:00,
2013-04-24 09:21:00,48.0,22.0,-100.00,NNE,18,2.0,5.0,36,-99.99,,,0.00,214.000000,,2013-04-24 15:21:00,
2013-04-24 09:53:00,52.0,22.0,-100.00,WSW,247,4.0,9.0,31,0.00,,,0.00,591.000000,,2013-04-24 15:53:00,
2013-04-24 10:03:00,52.0,22.0,-100.00,WSW,247,4.0,9.0,31,0.00,,,0.00,591.000000,,2013-04-24 16:03:00,
2013-04-24 10:12:00,52.0,22.0,-100.00,WSW,247,4.0,9.0,31,0.00,,,0.00,591.000000,,2013-04-24 16:12:00,
2013-04-24 10:23:00,52.0,22.0,-100.00,WSW,247,4.0,9.0,31,0.00,,,0.00,591.000000,,2013-04-24 16:23:00,
2013-04-24 10:53:00,56.0,23.0,-100.00,WNW,302,4.0,9.0,27,0.00,,,0.00,852.000000,,2013-04-24 16:53:00,
2013-04-24 11:02:00,56.0,23.0,-100.00,WNW,302,4.0,9.0,27,0.00,,,0.00,852.000000,,2013-04-24 17:02:00,
2013-04-24 11:12:00,56.0,23.0,-100.00,WNW,302,4.0,9.0,27,0.00,,,0.00,852.000000,,2013-04-24 17:12:00,
2013-04-24 11:22:00,56.0,23.0,-100.00,WNW,302,4.0,9.0,27,0.00,,,0.00,852.000000,,2013-04-24 17:22:00,
2013-04-24 11:52:00,59.0,22.0,-100.00,West,268,4.0,10.0,24,0.00,,,0.00,1057.000000,,2013-04-24 17:52:00,
2013-04-24 12:02:00,59.0,22.0,-100.00,West,268,4.0,10.0,24,0.00,,,0.00,1057.000000,,2013-04-24 18:02:00,
2013-04-24 12:12:00,59.0,22.0,-100.00,West,268,4.0,10.0,24,0.00,,,0.00,1057.000000,,2013-04-24 18:12:00,
2013-04-24 12:22:00,59.0,22.0,-100.00,West,268,4.0,10.0,24,0.00,,,0.00,1057.000000,,2013-04-24 18:22:00,
2013-04-24 12:52:00,64.0,23.0,-100.00,WSW,252,6.0,11.0,21,0.00,,,0.00,1189.000000,,2013-04-24 18:52:00,
2013-04-24 13:02:00,64.0,23.0,-100.00,WSW,252,6.0,11.0,21,0.00,,,0.00,1189.000000,,2013-04-24 19:02:00,
2013-04-24 13:11:00,64.0,23.0,-100.00,WSW,252,6.0,11.0,21,0.00,,,0.00,1189.000000,,2013-04-24 19:11:00,
2013-04-24 13:22:00,64.0,23.0,-100.00,WSW,252,6.0,11.0,21,0.00,,,0.00,1189.000000,,2013-04-24 19:22:00,
2013-04-24 13:52:00,65.0,23.0,-100.00,NW,305,7.0,12.0,20,0.00,,,0.00,1246.000000,,2013-04-24 19:52:00,
2013-04-24 14:02:00,65.0,23.0,-100.00,NW,305,7.0,12.0,20,0.00,,,0.00,1246.000000,,2013-04-24 20:02:00,
2013-04-24 14:11:00,65.0,23.0,-100.00,NW,305,7.0,12.0,20,0.00,,,0.00,1246.000000,,2013-04-24 20:11:00,
2013-04-24 14:22:00,65.0,23.0,-100.00,NW,305,7.0,12.0,20,0.00,,,0.00,1246.000000,,2013-04-24 20:22:00,
2013-04-24 14:52:00,71.0,23.0,-100.00,South,186,5.0,14.0,16,0.00,,,0.00,1222.000000,,2013-04-24 20:52:00,
2013-04-24 15:02:00,71.0,23.0,-100.00,South,186,5.0,14.0,16,0.00,,,0.00,1222.000000,,2013-04-24 21:02:00,
2013-04-24 15:11:00,71.0,23.0,-100.00,South,186,5.0,14.0,16,0.00,,,0.00,1222.000000,,2013-04-24 21:11:00,
2013-04-24 15:21:00,71.0,23.0,-100.00,South,186,5.0,14.0,16,0.00,,,0.00,1222.000000,,2013-04-24 21:21:00,
2013-04-24 15:52:00,69.0,19.0,-100.00,South,180,10.0,19.0,15,0.00,,,0.00,1127.000000,,2013-04-24 21:52:00,
2013-04-24 16:03:00,69.0,19.0,-100.00,South,180,10.0,19.0,15,0.00,,,0.00,1127.000000,,2013-04-24 22:03:00,
2013-04-24 16:12:00,69.0,19.0,-100.00,South,180,10.0,19.0,15,0.00,,,0.00,1127.000000,,2013-04-24 22:12:00,
2013-04-24 16:22:00,69.0,19.0,-100.00,South,180,10.0,19.0,15,0.00,,,0.00,1127.000000,,2013-04-24 22:22:00,
2013-04-24 16:52:00,73.0,15.0,-100.00,SSE,148,5.0,17.0,11,0.00,,,0.00,956.000000,,2013-04-24 22:52:00,
2013-04-24 17:02:00,73.0,15.0,-100.00,SSE,148,5.0,17.0,11,0.00,,,0.00,956.000000,,2013-04-24 23:02:00,
2013-04-24 17:12:00,73.0,15.0,-100.00,SSE,148,5.0,17.0,11,0.00,,,0.00,956.000000,,2013-04-24 23:12:00,
2013-04-24 17:21:00,73.0,15.0,-100.00,SSE,148,5.0,17.0,11,0.00,,,0.00,956.000000,,2013-04-24 23:21:00,
2013-04-24 17:52:00,73.0,17.0,-100.00,SSE,149,4.0,14.0,12,0.00,,,0.00,717.000000,,2013-04-24 23:52:00,
2013-04-24 18:02:00,73.0,17.0,-100.00,SSE,149,4.0,14.0,12,0.00,,,0.00,717.000000,,2013-04-25 00:02:00,
2013-04-24 18:12:00,73.0,17.0,-100.00,SSE,149,4.0,14.0,12,0.00,,,0.00,717.000000,,2013-04-25 00:12:00,
2013-04-24 18:22:00,73.0,17.0,-100.00,SSE,149,4.0,14.0,12,0.00,,,0.00,717.000000,,2013-04-25 00:22:00,
2013-04-24 18:52:00,71.0,16.0,-100.00,South,181,6.0,15.0,12,0.00,,,0.00,436.000000,,2013-04-25 00:52:00,
2013-04-24 19:01:00,71.0,16.0,-100.00,South,181,6.0,15.0,12,0.00,,,0.00,436.000000,,2013-04-25 01:01:00,
2013-04-24 19:11:00,71.0,16.0,-100.00,South,181,6.0,15.0,12,0.00,,,0.00,436.000000,,2013-04-25 01:11:00,
2013-04-24 19:23:00,71.0,16.0,-100.00,South,181,6.0,15.0,12,0.00,,,0.00,436.000000,,2013-04-25 01:23:00,
2013-04-24 19:52:00,65.0,13.0,-100.00,SSE,159,4.0,14.0,13,0.00,,,0.00,138.000000,,2013-04-25 01:52:00,
2013-04-24 20:02:00,65.0,13.0,-100.00,SSE,159,4.0,14.0,13,0.00,,,0.00,138.000000,,2013-04-25 02:02:00,
2013-04-24 20:11:00,65.0,13.0,-100.00,SSE,159,4.0,14.0,13,0.00,,,0.00,138.000000,,2013-04-25 02:11:00,
2013-04-24 20:22:00,65.0,13.0,-100.00,SSE,159,4.0,14.0,13,0.00,,,0.00,138.000000,,2013-04-25 02:22:00,
2013-04-24 21:02:00,63.0,19.0,-100.00,SSE,153,9.0,13.0,18,0.00,,,0.00,4.000000,,2013-04-25 03:02:00,
2013-04-24 21:11:00,63.0,19.0,-100.00,SSE,153,9.0,13.0,18,0.00,,,0.00,4.000000,,2013-04-25 03:11:00,
2013-04-24 21:22:00,63.0,19.0,-100.00,SSE,153,9.0,13.0,18,0.00,,,0.00,4.000000,,2013-04-25 03:22:00,
2013-04-24 21:52:00,62.0,17.0,-100.00,ESE,121,10.0,16.0,17,0.00,,,0.00,0.000000,,2013-04-25 03:52:00,
2013-04-24 22:03:00,62.0,17.0,-100.00,ESE,121,10.0,16.0,17,0.00,,,0.00,0.000000,,2013-04-25 04:03:00,
2013-04-24 22:12:00,62.0,17.0,-100.00,ESE,121,10.0,16.0,17,0.00,,,0.00,0.000000,,2013-04-25 04:12:00,
2013-04-24 22:23:00,62.0,17.0,-100.00,ESE,121,10.0,16.0,17,0.00,,,0.00,0.000000,,2013-04-25 04:23:00,
2013-04-24 22:52:00,62.0,17.0,-100.00,SSE,151,10.0,17.0,17,0.00,,,0.00,0.000000,,2013-04-25 04:52:00,
2013-04-24 23:02:00,62.0,17.0,-100.00,SSE,151,10.0,17.0,17,0.00,,,0.00,0.000000,,2013-04-25 05:02:00,
2013-04-24 23:12:00,62.0,17.0,-100.00,SSE,151,10.0,17.0,17,0.00,,,0.00,0.000000,,2013-04-25 05:12:00,
2013-04-24 23:21:00,62.0,17.0,-100.00,SSE,151,10.0,17.0,17,0.00,,,0.00,0.000000,,2013-04-25 05:21:00,
2013-04-24 23:52:00,61.0,21.0,-100.00,ESE,118,18.0,24.0,21,0.00,,,0.00,0.000000,,2013-04-25 05:52:00,